Time;durP1;ratioP1;P1;durP2;ratioP2;P2;SDS_P1;SDS_P2;PMS_P1;PMS_P2;Temp;Humidity;BMP_temperature;BMP_pressure;BME280_temperature;BME280_humidity;BME280_pressure;Samples;Min_cycle;Max_cycle;Signal;HPM_P1;HPM_P2
2021/01/19 00:03:22;;;;;;;4.30;2.80;;;20.20;30.50;;;;;;8396337;28;20064;-55
2021/01/19 00:07:22;;;;;;;3.17;2.70;;;20.20;30.60;;;;;;8390942;28;20409;-54
2021/01/19 00:11:23;;;;;;;3.53;3.07;;;20.20;30.50;;;;;;8392758;28;20489;-55
2021/01/19 00:15:23;;;;;;;4.20;2.90;;;20.20;30.60;;;;;;8391838;28;20114;-55
2021/01/19 00:19:24;;;;;;;5.83;3.10;;;20.10;30.60;;;;;;8390078;27;20047;-54
2021/01/19 00:23:25;;;;;;;4.87;3.10;;;20.20;30.50;;;;;;8395860;28;20128;-54
2021/01/19 00:27:26;;;;;;;5.53;3.58;;;20.10;30.50;;;;;;8391655;28;20083;-54
2021/01/19 00:31:26;;;;;;;4.63;3.45;;;20.10;30.50;;;;;;8389648;28;20037;-55
2021/01/19 00:35:27;;;;;;;5.97;3.10;;;20.10;30.50;;;;;;8391119;28;20036;-54
2021/01/19 00:39:28;;;;;;;3.67;2.75;;;20.10;30.50;;;;;;8395476;28;20036;-54
2021/01/19 00:43:29;;;;;;;6.93;3.42;;;20.10;30.50;;;;;;8389468;28;20443;-53
2021/01/19 00:47:30;;;;;;;5.80;3.63;;;20.10;30.50;;;;;;8390758;28;20047;-54
2021/01/19 00:51:35;;;;;;;5.03;3.20;;;20.10;30.50;;;;;;8390870;28;20031;-54
2021/01/19 00:55:36;;;;;;;4.85;3.40;;;20.10;30.50;;;;;;8393308;28;20029;-54
2021/01/19 00:59:37;;;;;;;5.47;3.72;;;20.00;30.40;;;;;;8391721;28;20036;-54
2021/01/19 01:03:37;;;;;;;4.60;3.45;;;20.00;30.30;;;;;;8390479;28;20047;-54
2021/01/19 01:07:43;;;;;;;5.65;3.65;;;20.10;30.40;;;;;;8388638;28;20053;-53
2021/01/19 01:11:44;;;;;;;5.38;3.28;;;20.00;30.40;;;;;;8390352;28;20067;-54
2021/01/19 01:15:45;;;;;;;5.28;4.32;;;20.00;30.40;;;;;;8393225;28;20489;-54
2021/01/19 01:19:46;;;;;;;5.30;3.65;;;20.00;30.40;;;;;;8390212;28;20116;-55
2021/01/19 01:23:47;;;;;;;4.88;3.10;;;20.00;30.40;;;;;;8390293;28;20070;-52
2021/01/19 01:27:48;;;;;;;4.25;3.42;;;20.00;30.30;;;;;;8388449;28;20048;-56
2021/01/19 01:31:49;;;;;;;4.88;3.15;;;20.00;30.30;;;;;;8394853;28;20036;-55
2021/01/19 01:35:50;;;;;;;6.88;3.20;;;20.00;30.30;;;;;;8421430;28;20032;-54
2021/01/19 01:39:51;;;;;;;5.18;2.78;;;20.00;30.30;;;;;;8399670;28;20066;-55
2021/01/19 01:43:52;;;;;;;5.23;3.33;;;20.00;30.20;;;;;;8390029;28;20087;-55
2021/01/19 01:47:56;;;;;;;3.65;3.08;;;19.90;30.20;;;;;;8389463;28;20279;-54
2021/01/19 01:51:57;;;;;;;5.65;3.47;;;19.90;30.20;;;;;;8392288;28;20086;-54
2021/01/19 01:55:59;;;;;;;3.38;2.42;;;19.90;30.20;;;;;;8390129;27;20070;-54
2021/01/19 02:00:02;;;;;;;;;;;19.90;30.20;;;;;;8390290;28;20033;-53
2021/01/19 02:04:03;;;;;;;4.00;3.05;;;19.90;30.20;;;;;;8388313;28;19939;-54
2021/01/19 02:08:34;;;;;;;3.58;2.80;;;19.90;30.10;;;;;;8393771;27;20044;-53
2021/01/19 02:12:43;;;;;;;6.13;3.17;;;19.90;30.10;;;;;;8360753;28;20375;-55
2021/01/19 02:17:02;;;;;;;4.75;3.13;;;19.90;30.10;;;;;;8387046;28;20616;-54
2021/01/19 02:21:40;;;;;;;3.10;2.58;;;19.90;30.00;;;;;;8395649;28;20060;-53
2021/01/19 02:25:59;;;;;;;3.33;2.85;;;19.80;30.10;;;;;;8393705;28;20123;-53
2021/01/19 02:30:15;;;;;;;5.18;2.80;;;19.90;30.00;;;;;;8394771;28;20037;-54
2021/01/19 02:34:39;;;;;;;4.70;3.00;;;19.90;30.10;;;;;;8397804;27;20115;-53
2021/01/19 02:38:50;;;;;;;3.45;2.92;;;19.90;30.00;;;;;;8398073;28;20083;-54
2021/01/19 02:43:11;;;;;;;3.72;2.67;;;19.80;30.00;;;;;;8392894;28;20044;-53
2021/01/19 02:47:13;;;;;;;3.37;2.60;;;19.80;30.00;;;;;;8394646;28;20401;-53
2021/01/19 02:51:14;;;;;;;3.70;2.50;;;19.80;30.00;;;;;;8394272;28;20056;-55
2021/01/19 02:55:15;;;;;;;3.28;2.45;;;19.80;30.00;;;;;;8394705;28;20508;-55
2021/01/19 02:59:34;;;;;;;3.17;2.40;;;19.80;30.00;;;;;;8396414;28;20025;-54
2021/01/19 03:03:40;;;;;;;4.45;3.22;;;19.80;29.90;;;;;;8393948;28;20040;-53
2021/01/19 03:07:45;;;;;;;3.83;2.38;;;19.80;30.00;;;;;;8392375;28;20489;-54
2021/01/19 03:11:49;;;;;;;2.83;2.38;;;19.80;29.90;;;;;;8393720;28;20085;-55
2021/01/19 03:16:11;;;;;;;3.92;2.60;;;19.80;29.90;;;;;;8396232;28;20044;-54
2021/01/19 03:20:13;;;;;;;3.85;2.53;;;19.80;29.90;;;;;;8364519;28;20041;-53
2021/01/19 03:24:14;;;;;;;3.88;2.75;;;19.80;29.90;;;;;;8385058;28;20110;-54
2021/01/19 03:28:15;;;;;;;3.72;2.60;;;19.80;29.90;;;;;;8391658;27;20045;-53
2021/01/19 03:32:16;;;;;;;2.65;2.25;;;19.70;29.80;;;;;;8393069;28;20056;-54
2021/01/19 03:36:17;;;;;;;4.20;2.70;;;19.70;29.80;;;;;;8397082;28;20040;-55
2021/01/19 03:40:18;;;;;;;2.72;2.38;;;19.70;29.90;;;;;;8392582;28;20032;-54
2021/01/19 03:44:19;;;;;;;3.47;2.63;;;19.70;29.80;;;;;;8392418;28;20039;-54
2021/01/19 03:48:20;;;;;;;2.90;2.60;;;19.70;29.80;;;;;;8392227;28;20086;-54
2021/01/19 03:52:21;;;;;;;3.93;2.53;;;19.70;29.80;;;;;;8395033;28;20127;-55
2021/01/19 03:56:22;;;;;;;2.72;2.05;;;19.70;29.80;;;;;;8392177;28;20274;-54
2021/01/19 04:00:23;;;;;;;3.22;2.45;;;19.70;29.80;;;;;;8414035;28;20036;-53
2021/01/19 04:04:24;;;;;;;3.33;2.15;;;19.70;29.80;;;;;;8423078;28;20464;-54
2021/01/19 04:08:25;;;;;;;4.38;2.53;;;19.70;29.80;;;;;;8422501;28;20053;-55
2021/01/19 04:12:25;;;;;;;4.78;2.53;;;19.70;29.80;;;;;;8396036;28;20025;-55
2021/01/19 04:16:26;;;;;;;3.35;2.30;;;19.70;29.90;;;;;;8389971;28;20029;-55
2021/01/19 04:20:27;;;;;;;4.75;2.40;;;19.70;29.80;;;;;;8391589;28;20078;-54
2021/01/19 04:24:28;;;;;;;3.10;2.25;;;19.70;29.70;;;;;;8391396;28;20029;-54
2021/01/19 04:28:29;;;;;;;3.75;2.05;;;19.80;29.80;;;;;;8393861;27;20452;-54
2021/01/19 04:32:30;;;;;;;3.30;2.45;;;19.90;29.70;;;;;;8391123;28;20029;-53
2021/01/19 04:36:31;;;;;;;4.47;2.50;;;19.90;29.60;;;;;;8391145;28;20491;-54
2021/01/19 04:40:32;;;;;;;3.20;2.30;;;19.90;29.50;;;;;;8389892;27;20298;-53
2021/01/19 04:44:34;;;;;;;3.60;2.10;;;20.00;29.60;;;;;;8392487;28;20032;-55
2021/01/19 04:48:36;;;;;;;4.25;2.30;;;20.00;29.50;;;;;;8394997;28;20291;-52
2021/01/19 04:52:41;;;;;;;3.80;2.58;;;20.00;29.50;;;;;;8389140;27;20054;-53
2021/01/19 04:56:53;;;;;;;4.63;2.28;;;20.10;29.50;;;;;;8390641;28;20106;-55
2021/01/19 05:01:08;;;;;;;3.05;2.10;;;20.10;29.50;;;;;;8389669;28;20485;-55
2021/01/19 05:05:27;;;;;;;2.67;2.05;;;20.10;29.50;;;;;;8394723;28;20036;-53
2021/01/19 05:09:35;;;;;;;2.72;2.17;;;20.10;29.40;;;;;;8361584;28;20053;-54
2021/01/19 05:13:54;;;;;;;3.25;2.10;;;20.20;29.40;;;;;;8381685;28;20367;-53
2021/01/19 05:17:56;;;;;;;3.50;2.47;;;20.20;29.40;;;;;;8390427;28;20043;-52
2021/01/19 05:21:57;;;;;;;2.85;2.20;;;20.20;29.40;;;;;;8397569;28;20043;-54
2021/01/19 05:26:00;;;;;;;2.65;2.38;;;20.20;29.40;;;;;;8427983;28;20043;-54
2021/01/19 05:30:05;;;;;;;4.13;2.63;;;20.20;29.30;;;;;;8390591;28;20123;-53
2021/01/19 05:34:10;;;;;;;4.10;2.17;;;20.20;29.30;;;;;;8388554;28;20115;-53
2021/01/19 05:38:11;;;;;;;3.58;2.40;;;20.20;29.30;;;;;;8403468;28;20113;-53
2021/01/19 05:42:23;;;;;;;3.80;2.55;;;20.30;29.30;;;;;;8418905;28;20066;-54
2021/01/19 05:46:26;;;;;;;2.95;2.08;;;20.30;29.30;;;;;;8392474;28;20493;-54
2021/01/19 05:50:27;;;;;;;2.25;2.03;;;20.30;29.30;;;;;;8394962;28;20040;-54
2021/01/19 05:54:52;;;;;;;1.88;1.67;;;20.30;29.20;;;;;;8396196;28;20139;-54
2021/01/19 05:58:53;;;;;;;3.05;2.25;;;20.30;29.20;;;;;;8394178;28;20029;-54
2021/01/19 06:02:57;;;;;;;3.03;1.80;;;20.30;29.20;;;;;;8395851;28;20039;-54
2021/01/19 06:06:59;;;;;;;2.38;2.17;;;20.30;29.10;;;;;;8398645;27;20048;-53
2021/01/19 06:11:08;;;;;;;2.65;1.90;;;20.40;29.20;;;;;;8395570;28;20040;-54
2021/01/19 06:15:10;;;;;;;3.53;2.40;;;20.40;29.10;;;;;;8413023;28;20047;-54
2021/01/19 06:19:11;;;;;;;2.78;1.83;;;20.40;29.10;;;;;;8418469;28;20029;-54
2021/01/19 06:23:12;;;;;;;3.23;2.77;;;20.40;29.10;;;;;;8399774;28;20029;-54
2021/01/19 06:27:24;;;;;;;2.75;2.33;;;20.40;29.10;;;;;;8395255;28;20294;-54
2021/01/19 06:31:26;;;;;;;3.47;2.45;;;20.40;29.00;;;;;;8393485;27;20067;-53
2021/01/19 06:35:27;;;;;;;3.00;2.63;;;20.40;29.00;;;;;;8395390;28;20481;-54
2021/01/19 06:39:37;;;;;;;2.95;2.47;;;20.40;29.00;;;;;;8394859;28;20144;-54
2021/01/19 06:43:44;;;;;;;3.38;2.25;;;20.40;29.00;;;;;;8397694;27;20424;-54
2021/01/19 06:47:51;;;;;;;3.42;2.60;;;20.40;29.00;;;;;;8394362;28;20113;-53
2021/01/19 06:52:02;;;;;;;3.03;2.50;;;20.40;29.00;;;;;;8392647;28;20418;-54
2021/01/19 06:56:12;;;;;;;3.03;2.70;;;20.50;29.00;;;;;;8394389;27;20397;-54
2021/01/19 07:00:18;;;;;;;4.07;2.97;;;20.40;28.90;;;;;;8393707;28;20058;-54
2021/01/19 07:04:24;;;;;;;2.90;2.40;;;20.50;28.90;;;;;;8396771;28;20489;-54
2021/01/19 07:08:59;;;;;;;2.95;2.50;;;20.50;29.00;;;;;;8394204;28;20061;-54
2021/01/19 07:13:07;;;;;;;2.65;2.40;;;20.50;28.90;;;;;;8391868;27;20064;-53
2021/01/19 07:17:10;;;;;;;3.38;2.30;;;20.50;28.90;;;;;;8393690;28;20032;-53
2021/01/19 07:21:12;;;;;;;2.53;2.30;;;20.50;29.30;;;;;;8393498;28;20028;-54
2021/01/19 07:25:13;;;;;;;3.35;2.03;;;20.50;28.90;;;;;;8395823;28;20497;-54
2021/01/19 07:29:16;;;;;;;2.97;2.27;;;20.50;28.80;;;;;;8393242;28;20079;-52
2021/01/19 07:33:19;;;;;;;3.78;2.60;;;20.50;28.80;;;;;;8393637;27;20033;-54
2021/01/19 07:37:36;;;;;;;3.53;2.40;;;20.50;28.80;;;;;;8391524;27;20036;-53
2021/01/19 07:41:37;;;;;;;3.83;2.25;;;20.50;28.80;;;;;;8392929;28;20040;-53
2021/01/19 07:45:37;;;;;;;3.57;2.30;;;20.50;28.80;;;;;;8397190;27;20400;-53
2021/01/19 07:49:38;;;;;;;3.57;2.20;;;20.50;28.70;;;;;;8391458;28;20032;-54
2021/01/19 07:53:48;;;;;;;3.83;2.43;;;20.50;28.70;;;;;;8392580;28;20037;-54
2021/01/19 07:57:51;;;;;;;2.97;2.15;;;20.50;28.70;;;;;;8390666;28;20155;-53
2021/01/19 08:01:58;;;;;;;3.60;2.45;;;20.50;28.70;;;;;;8396444;27;20056;-54
2021/01/19 08:06:09;;;;;;;3.45;2.20;;;20.50;28.70;;;;;;8392420;28;20485;-53
2021/01/19 08:10:29;;;;;;;2.88;2.20;;;20.60;28.70;;;;;;8389752;28;20033;-54
2021/01/19 08:14:52;;;;;;;3.30;2.40;;;20.50;28.60;;;;;;8392425;28;20040;-52
2021/01/19 08:19:05;;;;;;;3.28;2.30;;;20.60;28.60;;;;;;8390175;27;20442;-53
2021/01/19 08:23:17;;;;;;;2.60;2.15;;;20.60;28.60;;;;;;8392362;28;20116;-53
2021/01/19 08:27:19;;;;;;;3.00;2.08;;;20.60;28.50;;;;;;8395835;28;20048;-54
2021/01/19 08:31:20;;;;;;;3.13;2.20;;;20.60;28.60;;;;;;8390170;27;20039;-53
2021/01/19 08:35:26;;;;;;;4.25;2.35;;;20.60;28.60;;;;;;8391056;28;20397;-52
2021/01/19 08:39:27;;;;;;;2.83;2.10;;;20.70;28.60;;;;;;8391248;28;20066;-52
2021/01/19 08:43:29;;;;;;;5.00;2.97;;;20.70;28.60;;;;;;8393387;28;20032;-53
2021/01/19 08:47:32;;;;;;;3.63;2.58;;;20.60;28.50;;;;;;8390676;28;20190;-54
2021/01/19 08:51:34;;;;;;;2.85;2.35;;;20.60;28.50;;;;;;8411866;28;20511;-54
2021/01/19 08:55:35;;;;;;;2.60;2.20;;;20.60;28.40;;;;;;8409905;28;20040;-52
2021/01/19 08:59:35;;;;;;;2.53;2.33;;;20.60;28.50;;;;;;8391273;28;20142;-53
2021/01/19 09:03:36;;;;;;;3.50;2.40;;;20.70;28.40;;;;;;8394956;28;20120;-53
2021/01/19 09:07:36;;;;;;;3.03;2.53;;;20.70;28.50;;;;;;8388606;28;20068;-53
2021/01/19 09:11:37;;;;;;;3.20;2.80;;;20.70;28.40;;;;;;8390892;28;20036;-53
2021/01/19 09:15:42;;;;;;;2.53;2.33;;;20.70;28.40;;;;;;8390420;28;20545;-53
2021/01/19 09:19:42;;;;;;;3.20;2.80;;;20.70;28.50;;;;;;8393270;28;20033;-53
2021/01/19 09:23:43;;;;;;;3.43;2.57;;;20.70;28.40;;;;;;8394259;28;20115;-54
2021/01/19 09:27:43;;;;;;;3.07;2.53;;;20.70;28.40;;;;;;8395283;27;20135;-53
2021/01/19 09:31:44;;;;;;;3.77;2.73;;;20.70;28.50;;;;;;8397098;28;20067;-54
2021/01/19 09:35:45;;;;;;;3.72;2.60;;;20.70;28.50;;;;;;8398766;28;20033;-54
2021/01/19 09:39:46;;;;;;;2.83;2.47;;;20.70;28.60;;;;;;8398682;28;20159;-54
2021/01/19 09:43:50;;;;;;;3.35;2.88;;;20.60;28.50;;;;;;8396346;28;20036;-54
2021/01/19 09:47:51;;;;;;;3.47;2.67;;;20.60;28.60;;;;;;8396308;28;20052;-54
2021/01/19 09:51:52;;;;;;;3.92;2.75;;;20.60;28.50;;;;;;8394218;28;20020;-55
2021/01/19 09:55:54;;;;;;;2.90;2.57;;;20.60;28.60;;;;;;8400223;28;20024;-54
2021/01/19 09:59:54;;;;;;;3.58;2.83;;;20.60;28.60;;;;;;8396116;28;20037;-54
2021/01/19 10:03:55;;;;;;;3.00;2.57;;;20.60;28.60;;;;;;8394286;28;20044;-55
2021/01/19 10:07:55;;;;;;;3.80;2.50;;;20.60;28.60;;;;;;8395820;27;20048;-55
2021/01/19 10:11:57;;;;;;;4.73;2.60;;;20.60;28.60;;;;;;8399710;28;20427;-54
2021/01/19 10:16:05;;;;;;;3.22;2.67;;;20.60;28.60;;;;;;8393879;28;20123;-52
2021/01/19 10:20:16;;;;;;;3.53;2.50;;;20.60;28.60;;;;;;8395456;28;20421;-55
2021/01/19 10:24:17;;;;;;;4.32;2.72;;;20.60;28.60;;;;;;8395261;28;20033;-55
2021/01/19 10:28:23;;;;;;;;;;;20.60;28.60;;;;;;8393705;28;20127;-54
2021/01/19 10:32:24;;;;;;;3.72;2.85;;;20.60;28.60;;;;;;8399580;28;20335;-53
2021/01/19 10:36:27;;;;;;;3.78;2.30;;;20.60;28.60;;;;;;8394574;28;20051;-54
2021/01/19 10:40:28;;;;;;;3.45;2.38;;;20.60;28.60;;;;;;8393323;27;20071;-54
2021/01/19 10:44:28;;;;;;;3.00;2.33;;;20.60;28.60;;;;;;8395166;28;20033;-54
2021/01/19 10:48:29;;;;;;;3.03;2.70;;;20.60;28.60;;;;;;8398831;28;20143;-53
2021/01/19 10:52:30;;;;;;;3.10;2.47;;;20.70;28.60;;;;;;8424578;27;20020;-54
2021/01/19 10:56:30;;;;;;;3.53;2.03;;;20.60;28.60;;;;;;8404545;28;20428;-53
2021/01/19 11:00:32;;;;;;;3.97;2.67;;;20.60;28.60;;;;;;8394279;28;20036;-53
2021/01/19 11:04:33;;;;;;;2.90;2.40;;;20.60;28.60;;;;;;8394862;28;20473;-54
2021/01/19 11:08:33;;;;;;;3.27;2.40;;;20.60;28.60;;;;;;8431746;28;20048;-54
2021/01/19 11:12:34;;;;;;;3.53;2.40;;;20.60;28.60;;;;;;8400569;28;20040;-54
2021/01/19 11:16:39;;;;;;;2.30;1.90;;;20.60;28.60;;;;;;8392232;28;20029;-53
2021/01/19 11:20:41;;;;;;;3.53;2.80;;;20.60;28.60;;;;;;8394033;28;20375;-52
2021/01/19 11:24:41;;;;;;;3.92;2.78;;;20.60;28.60;;;;;;8396369;28;20052;-54
2021/01/19 11:28:42;;;;;;;2.40;2.20;;;20.60;28.60;;;;;;8393250;28;20040;-51
2021/01/19 11:32:42;;;;;;;3.87;2.80;;;20.60;28.60;;;;;;8393282;28;20496;-53
2021/01/19 11:36:43;;;;;;;3.63;2.60;;;20.60;28.60;;;;;;8385346;28;20041;-53
2021/01/19 11:40:44;;;;;;;3.57;2.30;;;20.60;28.50;;;;;;8393183;27;20028;-54
2021/01/19 11:44:44;;;;;;;2.77;2.27;;;20.60;28.60;;;;;;8396708;28;20033;-55
2021/01/19 11:48:45;;;;;;;3.50;2.33;;;20.60;28.60;;;;;;8389984;28;20048;-55
2021/01/19 11:52:45;;;;;;;2.37;2.17;;;20.60;28.60;;;;;;8391781;28;20155;-54
2021/01/19 11:56:48;;;;;;;3.07;2.33;;;20.60;28.60;;;;;;8396635;28;20028;-54
2021/01/19 12:00:49;;;;;;;2.05;1.80;;;20.60;28.60;;;;;;8428269;28;20081;-54
2021/01/19 12:04:50;;;;;;;2.85;2.15;;;20.70;28.60;;;;;;8395928;28;20136;-55
2021/01/19 12:08:51;;;;;;;3.53;2.40;;;20.60;28.60;;;;;;8392225;28;20493;-55
2021/01/19 12:12:52;;;;;;;2.75;2.25;;;20.60;28.60;;;;;;8398200;28;20477;-55
2021/01/19 12:17:02;;;;;;;3.97;2.17;;;20.60;28.60;;;;;;8428827;28;20039;-54
2021/01/19 12:21:05;;;;;;;2.22;2.00;;;20.60;28.60;;;;;;8395210;28;20392;-54
2021/01/19 12:25:06;;;;;;;3.22;2.20;;;20.60;28.60;;;;;;8390453;28;20028;-55
2021/01/19 12:29:06;;;;;;;2.47;2.20;;;20.60;28.60;;;;;;8391707;28;20048;-54
2021/01/19 12:33:07;;;;;;;2.57;2.20;;;20.60;28.60;;;;;;8391660;28;20036;-54
2021/01/19 12:37:08;;;;;;;2.33;2.10;;;20.60;28.60;;;;;;8393699;28;20033;-55
2021/01/19 12:41:08;;;;;;;2.57;2.10;;;20.60;28.60;;;;;;8391710;28;20102;-54
2021/01/19 12:45:09;;;;;;;2.07;1.77;;;20.60;28.60;;;;;;8390679;28;20081;-55
2021/01/19 12:49:10;;;;;;;4.03;2.10;;;20.60;28.60;;;;;;8388415;28;20457;-55
2021/01/19 12:53:11;;;;;;;2.80;1.87;;;20.60;28.60;;;;;;8393155;28;20541;-55
2021/01/19 12:57:13;;;;;;;3.65;2.08;;;20.60;28.60;;;;;;8388602;28;20045;-55
2021/01/19 13:01:14;;;;;;;3.05;2.20;;;20.60;28.60;;;;;;8387408;27;20081;-54
2021/01/19 13:05:14;;;;;;;3.70;2.47;;;20.60;28.60;;;;;;8389316;28;20497;-55
2021/01/19 13:09:16;;;;;;;2.75;1.98;;;20.60;28.60;;;;;;8388888;28;20063;-54
2021/01/19 13:13:17;;;;;;;2.67;1.90;;;20.60;28.60;;;;;;8391484;27;20031;-55
2021/01/19 13:17:17;;;;;;;2.30;2.03;;;20.60;28.60;;;;;;8388750;28;20115;-55
2021/01/19 13:21:18;;;;;;;2.50;2.30;;;20.70;28.60;;;;;;8404607;28;20453;-55
2021/01/19 13:25:18;;;;;;;2.00;1.80;;;20.60;28.60;;;;;;8414123;28;20044;-55
2021/01/19 13:29:19;;;;;;;2.20;1.90;;;20.60;28.60;;;;;;8392933;28;20053;-54
2021/01/19 13:33:19;;;;;;;2.27;1.73;;;20.70;28.60;;;;;;8388422;27;20040;-54
2021/01/19 13:37:20;;;;;;;2.20;2.00;;;20.70;28.60;;;;;;8386914;27;20048;-53
2021/01/19 13:41:20;;;;;;;2.60;1.63;;;20.70;28.60;;;;;;8388515;28;20037;-55
2021/01/19 13:45:23;;;;;;;1.90;1.70;;;20.60;28.60;;;;;;8392850;28;20115;-55
2021/01/19 13:49:24;;;;;;;2.38;1.92;;;20.60;28.60;;;;;;8388577;28;20044;-53
2021/01/19 13:53:24;;;;;;;4.77;2.20;;;20.60;28.60;;;;;;8388214;28;20109;-55
2021/01/19 13:57:25;;;;;;;2.23;1.73;;;20.70;28.70;;;;;;8400926;28;20401;-54
2021/01/19 14:01:27;;;;;;;2.53;1.83;;;20.60;28.60;;;;;;8415937;28;20032;-54
2021/01/19 14:05:28;;;;;;;2.67;2.03;;;20.60;28.70;;;;;;8392354;28;20036;-55
2021/01/19 14:09:28;;;;;;;3.27;2.17;;;20.60;28.70;;;;;;8390031;28;20133;-53
2021/01/19 14:13:29;;;;;;;2.27;1.93;;;20.70;28.70;;;;;;8392708;27;20036;-54
2021/01/19 14:17:30;;;;;;;2.87;1.90;;;20.60;28.70;;;;;;8393600;28;20033;-53
2021/01/19 14:21:31;;;;;;;2.35;2.03;;;20.60;28.70;;;;;;8397916;28;20031;-54
2021/01/19 14:25:31;;;;;;;3.93;2.07;;;20.60;28.70;;;;;;8392124;28;20392;-54
2021/01/19 14:29:32;;;;;;;2.47;2.00;;;20.60;28.80;;;;;;8393660;28;20037;-53
2021/01/19 14:33:32;;;;;;;2.27;1.77;;;20.60;28.90;;;;;;8393480;28;20055;-54
2021/01/19 14:37:33;;;;;;;3.00;1.93;;;20.60;28.80;;;;;;8391762;28;20033;-54
2021/01/19 14:41:38;;;;;;;2.90;1.93;;;20.60;28.90;;;;;;8397776;28;20523;-53
2021/01/19 14:45:39;;;;;;;2.45;1.75;;;20.60;28.90;;;;;;8392884;28;20086;-53
2021/01/19 14:49:39;;;;;;;2.43;2.00;;;20.60;28.90;;;;;;8391615;27;20097;-53
2021/01/19 14:53:40;;;;;;;2.87;1.93;;;20.60;29.00;;;;;;8393159;28;20033;-54
2021/01/19 14:57:44;;;;;;;3.87;2.07;;;20.60;29.00;;;;;;8396403;28;20050;-54
2021/01/19 15:01:46;;;;;;;2.97;1.90;;;20.60;29.00;;;;;;8391991;28;20520;-54
2021/01/19 15:05:46;;;;;;;;;;;20.60;29.10;;;;;;8393035;28;20098;-55
2021/01/19 15:09:47;;;;;;;2.40;2.00;;;20.60;29.00;;;;;;8390765;28;19958;-55
2021/01/19 15:13:47;;;;;;;1.90;1.60;;;20.60;29.10;;;;;;8394440;28;20120;-55
2021/01/19 15:17:50;;;;;;;3.20;1.90;;;20.60;29.10;;;;;;8426880;28;20025;-55
2021/01/19 15:21:51;;;;;;;3.75;2.20;;;20.60;29.20;;;;;;8424402;28;20059;-54
2021/01/19 15:25:51;;;;;;;3.87;2.23;;;20.60;29.20;;;;;;8412797;28;20040;-54
2021/01/19 15:29:52;;;;;;;2.17;1.77;;;20.60;29.30;;;;;;8393035;28;20032;-55
2021/01/19 15:33:53;;;;;;;1.97;1.77;;;20.60;29.20;;;;;;8396115;28;20115;-55
2021/01/19 15:37:53;;;;;;;3.70;2.17;;;20.60;29.30;;;;;;8392965;28;20028;-55
2021/01/19 15:41:54;;;;;;;2.53;2.23;;;20.60;29.30;;;;;;8409672;28;20068;-54
2021/01/19 15:45:54;;;;;;;3.67;2.30;;;20.60;29.40;;;;;;8416741;28;20037;-54
2021/01/19 15:49:55;;;;;;;2.97;2.13;;;20.60;29.50;;;;;;8397208;28;20267;-55
2021/01/19 15:53:56;;;;;;;3.40;2.40;;;20.60;29.40;;;;;;8393510;28;20157;-55
2021/01/19 15:57:56;;;;;;;3.70;2.20;;;20.60;29.50;;;;;;8391041;28;20040;-55
2021/01/19 16:01:57;;;;;;;4.63;2.63;;;20.60;29.40;;;;;;8392482;28;20040;-54
2021/01/19 16:05:57;;;;;;;4.87;2.53;;;20.60;29.50;;;;;;8392048;28;20036;-53
2021/01/19 16:09:59;;;;;;;3.10;2.43;;;20.60;29.50;;;;;;8394675;28;20116;-54
2021/01/19 16:14:00;;;;;;;3.05;2.30;;;20.60;29.50;;;;;;8391895;28;20117;-54
2021/01/19 16:18:01;;;;;;;3.47;2.33;;;20.60;29.50;;;;;;8392032;28;20456;-55
2021/01/19 16:22:06;;;;;;;3.70;2.40;;;20.60;29.50;;;;;;8389885;28;20039;-54
2021/01/19 16:26:08;;;;;;;3.80;2.75;;;20.60;29.60;;;;;;8396130;28;20037;-55
2021/01/19 16:30:09;;;;;;;3.42;2.65;;;20.60;29.70;;;;;;8391445;28;20079;-55
2021/01/19 16:34:09;;;;;;;4.00;2.67;;;20.60;30.00;;;;;;8389889;28;20032;-54
2021/01/19 16:38:09;;;;;;;4.10;2.87;;;20.60;29.60;;;;;;8391750;28;20262;-54
2021/01/19 16:42:11;;;;;;;3.57;2.77;;;20.50;29.60;;;;;;8395667;28;20029;-54
2021/01/19 16:46:12;;;;;;;4.38;2.92;;;20.50;29.60;;;;;;8390532;28;20090;-54
2021/01/19 16:50:14;;;;;;;4.22;2.75;;;20.50;29.60;;;;;;8391646;28;20024;-54
2021/01/19 16:54:14;;;;;;;5.00;2.95;;;20.60;29.60;;;;;;8404229;28;20036;-54
2021/01/19 16:58:15;;;;;;;4.70;3.73;;;20.60;29.60;;;;;;8419132;27;20134;-54
2021/01/19 17:02:15;;;;;;;5.17;3.33;;;20.60;29.70;;;;;;8389564;27;20052;-54
2021/01/19 17:06:16;;;;;;;4.17;3.03;;;20.60;29.60;;;;;;8391571;28;20123;-54
2021/01/19 17:10:16;;;;;;;5.07;3.63;;;20.50;29.60;;;;;;8389665;28;20429;-54
2021/01/19 17:14:17;;;;;;;5.43;3.43;;;20.50;29.50;;;;;;8390937;28;20029;-54
2021/01/19 17:18:18;;;;;;;4.43;2.83;;;20.50;29.50;;;;;;8394988;28;20120;-54
2021/01/19 17:22:19;;;;;;;5.68;3.22;;;20.50;29.60;;;;;;8389040;27;20123;-55
2021/01/19 17:26:20;;;;;;;4.53;3.45;;;20.40;29.60;;;;;;8390639;28;20555;-54
2021/01/19 17:30:21;;;;;;;4.73;3.00;;;20.40;29.50;;;;;;8390566;28;20033;-53
2021/01/19 17:34:21;;;;;;;6.50;3.53;;;20.30;29.50;;;;;;8382769;28;20028;-54
2021/01/19 17:38:22;;;;;;;4.63;3.27;;;20.30;29.50;;;;;;8394320;28;20033;-54
2021/01/19 17:42:22;;;;;;;3.53;2.93;;;20.20;29.50;;;;;;8388944;28;20532;-54
2021/01/19 17:46:24;;;;;;;5.43;3.20;;;20.20;29.50;;;;;;8394380;28;20062;-53
2021/01/19 17:50:26;;;;;;;;;;;20.20;29.50;;;;;;8396757;27;20044;-55
2021/01/19 17:54:26;;;;;;;4.57;2.95;;;20.10;29.50;;;;;;8401161;28;19912;-53
2021/01/19 17:58:27;;;;;;;4.20;2.67;;;20.10;30.00;;;;;;8394708;28;20029;-53
2021/01/19 18:02:27;;;;;;;5.27;3.40;;;20.00;29.60;;;;;;8396105;28;20040;-54
2021/01/19 18:06:33;;;;;;;4.27;3.07;;;20.00;29.60;;;;;;8395597;28;20040;-54
2021/01/19 18:10:33;;;;;;;3.67;2.92;;;20.00;29.70;;;;;;8367136;28;20029;-54
2021/01/19 18:14:34;;;;;;;3.90;2.73;;;19.90;29.80;;;;;;8396077;28;20036;-54
2021/01/19 18:18:34;;;;;;;6.40;3.13;;;19.80;29.80;;;;;;8395544;28;20099;-54
2021/01/19 18:22:35;;;;;;;3.83;3.13;;;19.80;29.80;;;;;;8394014;28;20025;-53
2021/01/19 18:26:43;;;;;;;3.33;2.87;;;19.70;29.80;;;;;;8375374;28;20127;-54
2021/01/19 18:30:43;;;;;;;5.82;3.28;;;19.70;29.90;;;;;;8397997;28;20029;-54
2021/01/19 18:34:44;;;;;;;5.53;3.07;;;19.70;29.90;;;;;;8395343;27;20032;-54
2021/01/19 18:38:45;;;;;;;3.23;2.60;;;19.70;29.90;;;;;;8394819;28;20036;-53
2021/01/19 18:42:46;;;;;;;3.10;2.38;;;19.70;29.80;;;;;;8384572;27;20098;-55
2021/01/19 18:46:47;;;;;;;3.77;2.53;;;19.60;29.80;;;;;;8398851;28;20041;-54
2021/01/19 18:50:47;;;;;;;3.78;2.90;;;19.60;29.80;;;;;;8394334;28;20032;-54
2021/01/19 18:54:48;;;;;;;4.90;3.33;;;19.60;30.00;;;;;;8392806;27;20041;-51
2021/01/19 18:58:50;;;;;;;4.43;3.50;;;19.60;29.90;;;;;;8394418;28;20108;-54
2021/01/19 19:02:54;;;;;;;3.83;2.85;;;19.60;30.00;;;;;;8395806;28;20042;-53
2021/01/19 19:06:56;;;;;;;4.30;2.95;;;19.60;29.90;;;;;;8430104;28;20105;-54
2021/01/19 19:10:56;;;;;;;4.65;3.33;;;19.60;30.00;;;;;;8402166;28;20119;-54
2021/01/19 19:14:57;;;;;;;3.93;3.17;;;19.60;30.00;;;;;;8394413;28;20394;-52
2021/01/19 19:18:58;;;;;;;4.80;3.20;;;19.60;30.00;;;;;;8392400;28;20394;-52
2021/01/19 19:22:58;;;;;;;4.63;3.13;;;19.50;30.00;;;;;;8398435;28;20029;-53
2021/01/19 19:27:00;;;;;;;4.23;3.07;;;19.50;29.90;;;;;;8422507;27;20151;-55
2021/01/19 19:31:03;;;;;;;5.63;3.22;;;19.50;30.00;;;;;;8405543;28;20119;-52
2021/01/19 19:35:04;;;;;;;3.75;3.00;;;19.50;30.00;;;;;;8394039;28;20025;-55
2021/01/19 19:39:05;;;;;;;4.75;3.22;;;19.50;30.00;;;;;;8388059;28;20033;-56
2021/01/19 19:43:05;;;;;;;4.10;2.93;;;19.50;30.00;;;;;;8427613;27;20081;-55
2021/01/19 19:47:06;;;;;;;3.87;2.97;;;19.50;30.00;;;;;;8402085;28;20098;-55
2021/01/19 19:51:06;;;;;;;4.03;3.17;;;19.50;30.00;;;;;;8392620;28;20068;-54
2021/01/19 19:55:07;;;;;;;5.30;3.10;;;19.50;30.00;;;;;;8391234;28;20059;-55
2021/01/19 19:59:08;;;;;;;3.65;2.85;;;19.50;29.90;;;;;;8397088;28;20037;-53
2021/01/19 20:03:09;;;;;;;4.80;3.30;;;19.50;30.00;;;;;;8392390;28;20559;-53
2021/01/19 20:07:09;;;;;;;5.07;3.33;;;19.50;30.00;;;;;;8389184;28;20033;-55
2021/01/19 20:11:13;;;;;;;6.63;3.57;;;19.50;30.00;;;;;;8392088;28;20132;-54
2021/01/19 20:15:16;;;;;;;4.75;3.70;;;19.50;30.00;;;;;;8396376;28;20033;-54
2021/01/19 20:19:17;;;;;;;4.13;2.80;;;19.40;29.90;;;;;;8389856;28;20035;-55
2021/01/19 20:23:18;;;;;;;3.55;2.95;;;19.40;30.00;;;;;;8392210;28;20032;-54
2021/01/19 20:27:19;;;;;;;4.43;3.15;;;19.40;30.00;;;;;;8391102;28;20395;-55
2021/01/19 20:31:22;;;;;;;4.90;3.60;;;19.40;30.00;;;;;;8390288;28;20121;-55
2021/01/19 20:35:23;;;;;;;4.18;3.38;;;19.40;30.00;;;;;;8395905;28;20094;-55
2021/01/19 20:39:24;;;;;;;4.87;3.50;;;19.40;30.00;;;;;;8390892;28;20055;-55
2021/01/19 20:43:25;;;;;;;4.72;3.33;;;19.40;30.00;;;;;;8389550;28;20546;-54
2021/01/19 20:47:25;;;;;;;5.20;3.53;;;19.40;30.00;;;;;;8391209;28;20040;-55
2021/01/19 20:51:26;;;;;;;4.70;3.13;;;19.40;30.00;;;;;;8395442;28;20064;-54
2021/01/19 20:55:26;;;;;;;4.50;3.13;;;19.30;30.00;;;;;;8388762;28;20035;-55
2021/01/19 20:59:27;;;;;;;5.33;3.23;;;19.40;30.00;;;;;;8410165;28;20077;-54
2021/01/19 21:03:28;;;;;;;5.30;3.70;;;19.30;30.00;;;;;;8414445;28;20028;-54
2021/01/19 21:07:28;;;;;;;4.77;3.60;;;19.30;30.00;;;;;;8391050;28;20440;-54